Shoup, Idaho
Current Conditions -  °F | °C
As of 10:55 PM on Wednesday 28 Jan 2015 (Local Time) from KLLJ Reporting Station
Overcast Overcast  
Wind Chill: 31°   Ceiling: 1300
Heat Index: 31°   Visibility: 10mi
Dew Point: 31°   Wind: 0mph
Humidity: 100%   Direction: NA
Pressure: 30.41"   Gusts: NA
Location:  45.38°N, 114.28°W
Report Text: KLLJ 290555Z AUTO 00000KT 10SM OVC013 M01/M01 A3041 RMK AO2 SLP319 T10061006 10022 21006 51014
Loading
Personal Weather Stations






























Interactive Weather Map New forecast layout! Learn more

10-Day Weather Forecast

Advertisements
Track Severe Weather on mobile